Time;durP1;ratioP1;P1;durP2;ratioP2;P2;SDS_P1;SDS_P2;PMS_P1;PMS_P2;Temp;Humidity;BMP_temperature;BMP_pressure;BME280_temperature;BME280_humidity;BME280_pressure;Samples;Min_cycle;Max_cycle;Signal;HPM_P1;HPM_P2
2023/05/14 00:02:46;;;;;;;19.80;12.50;;;;;;;8.24;62.39;100796.27;129665;1266;114710;-72
2023/05/14 00:05:49;;;;;;;22.90;13.20;;;;;;;8.22;62.38;100792.41;129680;1280;115140;-73
2023/05/14 00:08:51;;;;;;;25.60;13.70;;;;;;;8.20;62.19;100787.85;129720;1262;115408;-72
2023/05/14 00:11:54;;;;;;;21.40;13.30;;;;;;;8.16;62.00;100785.48;129679;1262;115213;-72
2023/05/14 00:14:57;;;;;;;25.50;13.90;;;;;;;8.14;62.19;100780.39;129656;1262;114779;-73
2023/05/14 00:17:59;;;;;;;20.10;12.30;;;;;;;8.11;62.21;100781.58;129536;1256;115495;-72
2023/05/14 00:21:02;;;;;;;18.70;12.50;;;;;;;8.08;62.34;100778.27;129505;1280;128547;-72
2023/05/14 00:24:08;;;;;;;19.10;12.70;;;;;;;8.08;62.36;100777.21;130001;1273;115047;-72
2023/05/14 00:27:10;;;;;;;19.60;13.20;;;;;;;8.10;62.61;100775.73;129629;1256;114875;-72
2023/05/14 00:30:13;;;;;;;18.40;12.80;;;;;;;8.14;63.00;100772.73;129681;1262;114835;-74
2023/05/14 00:33:16;;;;;;;18.90;13.90;;;;;;;8.20;62.90;100773.43;129602;1262;114731;-72
2023/05/14 00:36:18;;;;;;;21.20;13.90;;;;;;;8.26;62.91;100773.27;129591;1258;114782;-73
2023/05/14 00:39:21;;;;;;;19.70;13.20;;;;;;;8.32;63.11;100772.86;129597;1257;114717;-72
2023/05/14 00:42:23;;;;;;;27.20;15.00;;;;;;;8.40;63.11;100769.05;129625;1256;115366;-67
2023/05/14 00:45:26;;;;;;;18.10;12.50;;;;;;;8.48;63.17;100769.88;129979;1262;114726;-60
2023/05/14 00:48:31;;;;;;;19.80;13.00;;;;;;;8.56;63.17;100771.41;129672;1257;114777;-62
2023/05/14 00:51:34;;;;;;;20.50;13.20;;;;;;;8.64;63.13;100773.64;129821;1278;114722;-63
2023/05/14 00:54:36;;;;;;;18.30;13.30;;;;;;;8.72;63.20;100773.20;129714;1257;114725;-61
2023/05/14 00:57:39;;;;;;;17.70;13.50;;;;;;;8.79;62.92;100772.40;129709;1280;114761;-64
2023/05/14 01:00:41;;;;;;;17.80;11.90;;;;;;;8.87;63.04;100768.92;129625;1261;115345;-62
2023/05/14 01:03:44;;;;;;;19.40;12.20;;;;;;;8.95;63.01;100766.70;129626;1262;114792;-63
2023/05/14 01:06:59;;;;;;;17.20;11.70;;;;;;;9.03;63.15;100764.46;129627;1262;115409;-63
2023/05/14 01:10:10;;;;;;;17.60;12.00;;;;;;;9.11;63.29;100762.73;129200;1262;326747;-65
2023/05/14 01:13:33;;;;;;;19.50;11.00;;;;;;;9.19;63.02;100759.98;129950;1262;128875;-64
2023/05/14 01:16:36;;;;;;;17.40;11.20;;;;;;;9.26;62.79;100757.04;129882;1262;115226;-66
2023/05/14 01:19:46;;;;;;;18.00;10.50;;;;;;;9.33;62.59;100758.73;129908;1257;114801;-64
2023/05/14 01:22:48;;;;;;;13.40;9.90;;;;;;;9.41;62.52;100756.27;129746;1262;114972;-63
2023/05/14 01:25:50;;;;;;;15.90;10.10;;;;;;;9.49;62.58;100750.47;129566;1263;114710;-65
2023/05/14 01:28:54;;;;;;;18.60;10.20;;;;;;;9.56;62.40;100750.75;130096;1278;114701;-66
2023/05/14 01:31:56;;;;;;;15.70;10.00;;;;;;;9.64;62.37;100748.86;129933;1262;127502;-66
2023/05/14 01:34:59;;;;;;;17.60;10.50;;;;;;;9.70;62.16;100754.29;129842;1280;114751;-66
2023/05/14 01:38:05;;;;;;;15.90;10.00;;;;;;;9.78;62.07;100753.13;129886;1262;114790;-63
2023/05/14 01:41:08;;;;;;;16.60;10.60;;;;;;;9.84;61.89;100752.01;129897;1262;114779;-69
2023/05/14 01:44:10;;;;;;;14.40;9.60;;;;;;;9.91;61.71;100752.99;129901;1270;114844;-66
2023/05/14 01:47:12;;;;;;;11.50;8.10;;;;;;;9.96;61.61;100751.53;130112;1256;114718;-64
2023/05/14 01:50:14;;;;;;;14.80;9.80;;;;;;;10.02;61.50;100750.39;129613;1270;128796;-65
2023/05/14 01:53:17;;;;;;;13.90;8.10;;;;;;;10.07;61.41;100747.89;129914;1262;115104;-63
2023/05/14 01:56:24;;;;;;;12.60;9.00;;;;;;;10.09;61.24;100741.36;129926;1262;116312;-65
2023/05/14 01:59:28;;;;;;;12.30;7.90;;;;;;;10.12;61.18;100739.46;129602;1262;114810;-63
2023/05/14 02:02:31;;;;;;;14.20;8.60;;;;;;;10.14;61.10;100736.53;129654;1261;114724;-68
2023/05/14 02:05:33;;;;;;;13.90;9.10;;;;;;;10.16;61.13;100738.05;129758;1262;114830;-67
2023/05/14 02:08:36;;;;;;;10.20;8.20;;;;;;;10.17;61.12;100731.77;129591;1263;114773;-62
2023/05/14 02:11:38;;;;;;;13.80;8.60;;;;;;;10.18;60.97;100731.90;129671;1262;115151;-69
2023/05/14 02:14:41;;;;;;;15.30;9.50;;;;;;;10.18;60.90;100735.13;129472;1265;114745;-66
2023/05/14 02:17:43;;;;;;;13.30;8.80;;;;;;;10.17;60.70;100732.98;129615;1280;114718;-66
2023/05/14 02:20:46;;;;;;;16.40;9.80;;;;;;;10.16;60.69;100732.16;129679;1262;114719;-63
2023/05/14 02:23:49;;;;;;;17.30;9.20;;;;;;;10.15;60.66;100730.95;129553;1262;114767;-63
2023/05/14 02:26:51;;;;;;;17.10;8.80;;;;;;;10.13;60.71;100735.13;129716;1262;114802;-62
2023/05/14 02:29:59;;;;;;;14.00;9.30;;;;;;;10.11;60.59;100741.44;129677;1262;114712;-65
2023/05/14 02:33:02;;;;;;;14.40;10.40;;;;;;;10.10;60.62;100736.52;129501;1280;115433;-68
2023/05/14 02:36:04;;;;;;;16.50;9.70;;;;;;;10.07;60.39;100734.67;129651;1262;114788;-66
2023/05/14 02:39:07;;;;;;;16.10;9.70;;;;;;;10.04;60.43;100733.34;129657;1257;114730;-64
2023/05/14 02:42:09;;;;;;;19.90;10.10;;;;;;;10.00;60.52;100733.16;129621;1270;115290;-67
2023/05/14 02:45:12;;;;;;;18.10;11.30;;;;;;;9.96;60.53;100736.16;129633;1267;114803;-63
2023/05/14 02:48:14;;;;;;;17.20;9.90;;;;;;;9.93;60.60;100731.67;129563;1261;114741;-66
2023/05/14 02:51:19;;;;;;;16.10;10.60;;;;;;;9.90;60.62;100726.79;129734;1262;114741;-68
2023/05/14 02:54:22;;;;;;;17.60;10.20;;;;;;;9.91;60.52;100724.82;129789;1262;115043;-70
2023/05/14 02:57:24;;;;;;;20.70;11.10;;;;;;;9.91;60.61;100722.12;129894;1264;115169;-66
2023/05/14 03:00:29;;;;;;;16.80;10.50;;;;;;;9.91;60.90;100718.71;130110;1256;114843;-62
2023/05/14 03:03:31;;;;;;;18.10;11.20;;;;;;;9.89;60.71;100717.89;129620;1263;116466;-64
2023/05/14 03:06:33;;;;;;;18.30;11.20;;;;;;;9.86;60.94;100716.58;129545;1272;114849;-66
2023/05/14 03:09:35;;;;;;;17.50;11.30;;;;;;;9.83;60.88;100717.06;129641;1280;115127;-68
2023/05/14 03:12:37;;;;;;;18.40;11.50;;;;;;;9.79;60.89;100716.48;129618;1263;116392;-71
2023/05/14 03:15:39;;;;;;;17.40;11.20;;;;;;;9.76;61.12;100714.48;129810;1261;114778;-71
2023/05/14 03:18:41;;;;;;;20.50;11.50;;;;;;;9.75;60.85;100714.70;129820;1263;114825;-71
2023/05/14 03:21:44;;;;;;;20.90;12.20;;;;;;;9.74;60.97;100717.61;129693;1262;115249;-71
2023/05/14 03:24:46;;;;;;;19.10;12.20;;;;;;;9.73;60.94;100713.69;129586;1262;114955;-72
2023/05/14 03:27:49;;;;;;;16.00;12.20;;;;;;;9.74;60.88;100719.21;129511;1280;114783;-70
2023/05/14 03:30:51;;;;;;;20.10;12.30;;;;;;;9.73;61.18;100723.87;129788;1262;114753;-71
2023/05/14 03:33:54;;;;;;;17.50;12.40;;;;;;;9.72;61.12;100729.98;129515;1262;115246;-71
2023/05/14 03:36:56;;;;;;;19.90;13.30;;;;;;;9.72;61.28;100732.31;129464;1273;114819;-71
2023/05/14 03:39:58;;;;;;;22.00;12.80;;;;;;;9.71;61.29;100727.52;130080;1261;114669;-72
2023/05/14 03:43:01;;;;;;;19.50;13.80;;;;;;;9.71;61.21;100727.70;129994;1271;114654;-70
2023/05/14 03:46:03;;;;;;;19.90;14.00;;;;;;;9.71;61.56;100724.65;129920;1262;114709;-71
2023/05/14 03:49:06;;;;;;;28.40;13.20;;;;;;;9.71;61.40;100720.77;129896;1263;114856;-67
2023/05/14 03:52:08;;;;;;;24.10;13.70;;;;;;;9.69;61.42;100721.70;129852;1261;114734;-70
2023/05/14 03:55:10;;;;;;;21.40;13.20;;;;;;;9.71;61.64;100723.27;129567;1270;114765;-70
2023/05/14 03:58:13;;;;;;;21.80;13.20;;;;;;;9.72;61.65;100724.97;129495;1265;114943;-72
2023/05/14 04:01:15;;;;;;;19.60;12.80;;;;;;;9.73;61.71;100720.65;130003;1262;114754;-69
2023/05/14 04:04:17;;;;;;;17.40;11.70;;;;;;;9.76;61.59;100718.40;129555;1261;114722;-71
2023/05/14 04:07:19;;;;;;;18.10;13.10;;;;;;;9.80;61.54;100719.88;129556;1262;115583;-71
2023/05/14 04:10:21;;;;;;;18.00;12.50;;;;;;;9.86;61.80;100718.74;129840;1263;128965;-72
2023/05/14 04:13:24;;;;;;;18.40;12.90;;;;;;;9.93;61.69;100717.04;129858;1261;114849;-73
2023/05/14 04:16:26;;;;;;;19.60;12.90;;;;;;;10.01;61.49;100712.79;129624;1257;114782;-72
2023/05/14 04:19:28;;;;;;;19.40;13.20;;;;;;;10.09;61.70;100709.43;129424;1265;114812;-72
2023/05/14 04:22:30;;;;;;;18.90;12.60;;;;;;;10.16;61.47;100709.50;129440;1264;114819;-72
2023/05/14 04:25:33;;;;;;;24.80;13.20;;;;;;;10.22;61.41;100708.89;129755;1277;114817;-71
2023/05/14 04:28:35;;;;;;;20.80;13.50;;;;;;;10.29;61.40;100712.72;129972;1263;114718;-72
2023/05/14 04:31:37;;;;;;;17.10;12.90;;;;;;;10.37;61.16;100717.03;129616;1257;128630;-71
2023/05/14 04:34:40;;;;;;;21.50;13.00;;;;;;;10.48;61.37;100712.64;129704;1262;114736;-71
2023/05/14 04:37:42;;;;;;;19.40;13.20;;;;;;;10.63;61.18;100710.60;129896;1262;114796;-72
2023/05/14 04:40:44;;;;;;;18.90;12.60;;;;;;;10.90;61.34;100707.44;129846;1280;114766;-71
2023/05/14 04:43:49;;;;;;;19.90;12.80;;;;;;;11.56;61.66;100703.04;129704;1261;114674;-71
2023/05/14 04:46:51;;;;;;;22.20;12.80;;;;;;;12.52;61.55;100695.47;129833;1262;114793;-71
2023/05/14 04:49:53;;;;;;;22.60;13.00;;;;;;;13.51;60.70;100696.36;130114;1261;114737;-66
2023/05/14 04:52:55;;;;;;;17.90;11.50;;;;;;;14.37;59.34;100693.46;130198;1257;114688;-73
2023/05/14 04:55:57;;;;;;;17.00;12.20;;;;;;;15.16;58.32;100687.48;129608;1268;115174;-72
2023/05/14 04:58:59;;;;;;;17.50;12.90;;;;;;;15.96;57.69;100679.50;129963;1263;114774;-72
2023/05/14 05:02:01;;;;;;;18.40;11.60;;;;;;;16.71;56.09;100674.15;129963;1263;114722;-72
2023/05/14 05:05:03;;;;;;;18.80;11.40;;;;;;;17.43;55.60;100672.86;129917;1270;114719;-69
2023/05/14 05:08:05;;;;;;;16.60;11.00;;;;;;;18.26;54.85;100668.61;129992;1270;115491;-72
2023/05/14 05:11:07;;;;;;;13.60;9.70;;;;;;;18.94;53.36;100671.71;129799;1257;114988;-71
2023/05/14 05:14:09;;;;;;;15.70;10.50;;;;;;;19.35;51.49;100664.87;129873;1260;128848;-69
2023/05/14 05:17:11;;;;;;;17.80;10.90;;;;;;;19.57;50.67;100662.56;129848;1270;114780;-72
2023/05/14 05:20:13;;;;;;;13.60;9.60;;;;;;;19.77;50.06;100656.89;129917;1258;114727;-71
2023/05/14 05:23:15;;;;;;;14.00;9.60;;;;;;;19.93;48.96;100654.58;129744;1266;114712;-66
2023/05/14 05:26:18;;;;;;;15.70;10.20;;;;;;;19.90;48.29;100654.59;129893;1263;114784;-72
2023/05/14 05:29:21;;;;;;;17.10;10.30;;;;;;;19.87;47.77;100657.20;129833;1263;115236;-73
2023/05/14 05:32:24;;;;;;;13.70;10.20;;;;;;;19.72;46.68;100656.63;129836;1262;114674;-73
2023/05/14 05:35:26;;;;;;;13.40;9.30;;;;;;;19.48;46.85;100647.92;129815;1263;114779;-72
2023/05/14 05:38:28;;;;;;;12.90;10.00;;;;;;;19.43;47.11;100644.08;129996;1259;115590;-67
2023/05/14 05:41:30;;;;;;;14.00;10.00;;;;;;;19.38;46.26;100644.54;129248;1257;115475;-72
2023/05/14 05:44:32;;;;;;;15.50;9.90;;;;;;;19.15;45.69;100645.13;129962;1261;115146;-72
2023/05/14 05:47:34;;;;;;;13.80;9.50;;;;;;;19.02;46.39;100650.66;130197;1270;115060;-73
2023/05/14 05:50:36;;;;;;;11.20;8.10;;;;;;;19.11;46.07;100647.08;129595;1266;114868;-72
2023/05/14 05:53:41;;;;;;;14.20;9.90;;;;;;;19.22;45.46;100650.73;129737;1265;115203;-72
2023/05/14 05:56:43;;;;;;;;;;;;;;;19.43;45.51;100644.70;129942;1270;128548;-73
2023/05/14 05:59:45;;;;;;;12.10;8.50;;;;;;;19.66;45.72;100643.14;129841;1262;114785;-71
2023/05/14 06:02:47;;;;;;;10.20;7.80;;;;;;;19.97;45.44;100641.50;129680;1280;115157;-70
2023/05/14 06:05:51;;;;;;;10.00;7.80;;;;;;;20.06;44.65;100644.25;129432;1258;114888;-70
2023/05/14 06:08:53;;;;;;;13.80;9.10;;;;;;;20.10;44.46;100648.98;129416;1261;114829;-72
2023/05/14 06:11:56;;;;;;;12.40;7.60;;;;;;;19.98;43.91;100642.93;129835;1271;114716;-72
2023/05/14 06:14:58;;;;;;;12.80;8.00;;;;;;;19.94;44.51;100641.45;129752;1262;114770;-73
2023/05/14 06:18:00;;;;;;;13.10;8.10;;;;;;;20.04;44.12;100643.65;129605;1274;127992;-71
2023/05/14 06:21:02;;;;;;;9.90;7.80;;;;;;;20.18;44.02;100639.59;129753;1262;114731;-72
2023/05/14 06:24:04;;;;;;;9.70;7.60;;;;;;;20.29;43.33;100635.77;129870;1262;114741;-72
2023/05/14 06:27:07;;;;;;;9.60;7.20;;;;;;;20.14;43.13;100634.46;129587;1264;114833;-71
2023/05/14 06:30:10;;;;;;;8.80;7.30;;;;;;;20.10;43.62;100633.34;129755;1261;115183;-71
2023/05/14 06:33:13;;;;;;;10.70;7.10;;;;;;;20.22;43.50;100636.19;129457;1273;114835;-71
2023/05/14 06:36:16;;;;;;;9.70;6.50;;;;;;;20.29;43.47;100634.54;129537;1281;114786;-71
2023/05/14 06:39:18;;;;;;;8.10;6.40;;;;;;;20.39;43.15;100632.05;129457;1271;114675;-71
2023/05/14 06:42:20;;;;;;;9.50;6.00;;;;;;;20.44;42.92;100630.36;129462;1273;114809;-70
2023/05/14 06:45:24;;;;;;;8.70;6.40;;;;;;;20.62;43.29;100630.06;129358;1273;115068;-71
2023/05/14 06:48:28;;;;;;;8.60;6.40;;;;;;;20.89;42.71;100628.49;129390;1278;115122;-71
2023/05/14 06:51:31;;;;;;;8.10;5.90;;;;;;;21.30;42.74;100628.50;129426;1263;116150;-72
2023/05/14 06:54:33;;;;;;;6.00;5.00;;;;;;;21.66;41.87;100624.38;129452;1262;114734;-72
2023/05/14 06:57:35;;;;;;;6.60;5.00;;;;;;;21.96;41.57;100619.98;129472;1279;115104;-74
2023/05/14 07:00:37;;;;;;;6.90;5.30;;;;;;;22.48;41.00;100614.64;129897;1258;114825;-73
2023/05/14 07:03:39;;;;;;;8.20;5.70;;;;;;;23.01;40.79;100605.05;129326;1277;114791;-74
2023/05/14 07:06:42;;;;;;;5.50;4.80;;;;;;;23.66;40.35;100602.36;129852;1279;114802;-72
2023/05/14 07:09:45;;;;;;;6.40;4.40;;;;;;;24.25;39.28;100595.12;129830;1264;114697;-73
2023/05/14 07:12:48;;;;;;;7.80;3.60;;;;;;;24.75;38.71;100588.82;129956;1256;118432;-74
2023/05/14 07:15:50;;;;;;;4.60;2.70;;;;;;;25.23;36.95;100586.35;129819;1265;119269;-74
2023/05/14 07:18:53;;;;;;;3.70;3.00;;;;;;;25.61;36.72;100585.09;129780;1274;115225;-71
2023/05/14 07:21:56;;;;;;;3.00;2.50;;;;;;;26.05;35.99;100582.65;130118;1258;114763;-73
2023/05/14 07:24:58;;;;;;;3.70;2.50;;;;;;;26.44;35.65;100579.46;129942;1262;114786;-69
2023/05/14 07:28:00;;;;;;;3.70;2.40;;;;;;;26.76;35.18;100579.55;129505;1264;114805;-66
2023/05/14 07:31:07;;;;;;;2.50;2.10;;;;;;;27.08;34.76;100573.11;130219;1261;116274;-67
2023/05/14 07:34:10;;;;;;;4.00;3.00;;;;;;;27.40;33.98;100567.77;129885;1264;114911;-65
2023/05/14 07:37:12;;;;;;;4.00;3.10;;;;;;;27.72;33.27;100568.26;130130;1257;114715;-70
2023/05/14 07:40:14;;;;;;;2.70;2.20;;;;;;;27.85;32.95;100566.89;129948;1260;114744;-71
2023/05/14 07:43:16;;;;;;;3.70;2.60;;;;;;;27.85;32.11;100567.86;130138;1271;115195;-66
2023/05/14 07:46:18;;;;;;;2.60;2.20;;;;;;;27.63;30.99;100571.92;129802;1264;115595;-68
2023/05/14 07:49:20;;;;;;;3.00;2.60;;;;;;;27.36;31.00;100571.02;129911;1266;114750;-68
2023/05/14 07:52:23;;;;;;;2.40;2.10;;;;;;;27.29;31.23;100565.93;130147;1261;114729;-68
2023/05/14 07:55:25;;;;;;;2.40;1.90;;;;;;;27.17;30.76;100565.33;129827;1263;114758;-65
2023/05/14 07:58:27;;;;;;;3.10;1.80;;;;;;;27.01;30.73;100557.21;129877;1257;114746;-66
2023/05/14 08:01:30;;;;;;;2.30;2.10;;;;;;;27.14;31.03;100554.45;129919;1280;114804;-72
2023/05/14 08:04:32;;;;;;;3.10;2.20;;;;;;;27.30;30.87;100554.45;129899;1261;114732;-69
2023/05/14 08:07:34;;;;;;;2.90;2.60;;;;;;;27.18;30.22;100554.36;129448;1267;115295;-67
2023/05/14 08:10:37;;;;;;;2.70;2.40;;;;;;;26.78;29.84;100553.98;129376;1263;114898;-65
2023/05/14 08:13:40;;;;;;;2.90;2.40;;;;;;;26.42;30.18;100551.14;129654;1281;114814;-64
2023/05/14 08:16:42;;;;;;;3.60;2.40;;;;;;;26.33;30.53;100545.66;130225;1257;115309;-65
2023/05/14 08:19:44;;;;;;;2.60;2.40;;;;;;;26.22;30.51;100537.79;129782;1262;119175;-68
2023/05/14 08:22:46;;;;;;;3.30;3.00;;;;;;;26.10;30.75;100542.59;129756;1264;115153;-63
2023/05/14 08:25:48;;;;;;;3.10;2.80;;;;;;;26.07;30.78;100541.42;129467;1264;114745;-66
2023/05/14 08:28:52;;;;;;;3.60;2.50;;;;;;;25.82;30.25;100537.38;129272;1274;114837;-63
2023/05/14 08:31:54;;;;;;;2.90;2.50;;;;;;;25.61;30.71;100535.36;129411;1260;115029;-63
2023/05/14 08:34:56;;;;;;;2.70;2.40;;;;;;;25.68;30.96;100532.95;129461;1257;114731;-70
2023/05/14 08:37:59;;;;;;;3.20;2.20;;;;;;;25.59;30.46;100530.25;129573;1279;114834;-64
2023/05/14 08:41:04;;;;;;;4.20;3.10;;;;;;;25.42;30.76;100525.84;129656;1264;121336;-67
2023/05/14 08:44:12;;;;;;;2.40;2.20;;;;;;;25.26;30.59;100521.30;129572;1257;115164;-68
2023/05/14 08:47:15;;;;;;;1.90;1.70;;;;;;;25.28;31.06;100523.71;129849;1264;114803;-65
2023/05/14 08:50:18;;;;;;;2.70;2.30;;;;;;;25.46;30.99;100520.52;129992;1278;115034;-66
2023/05/14 08:53:20;;;;;;;5.90;2.40;;;;;;;25.39;30.59;100516.34;129362;1281;114844;-63
2023/05/14 08:56:24;;;;;;;2.40;1.80;;;;;;;25.27;30.56;100514.87;129384;1263;114968;-66
2023/05/14 08:59:26;;;;;;;2.30;1.60;;;;;;;25.09;30.43;100508.91;129524;1281;115235;-66
2023/05/14 09:02:30;;;;;;;3.40;1.60;;;;;;;24.84;30.34;100507.13;129533;1281;114833;-64
2023/05/14 09:05:32;;;;;;;2.80;2.10;;;;;;;24.38;30.59;100505.03;130048;1262;114694;-62
2023/05/14 09:08:35;;;;;;;2.70;1.80;;;;;;;24.10;31.18;100501.52;130055;1256;114918;-63
2023/05/14 09:11:41;;;;;;;2.70;1.90;;;;;;;23.90;31.29;100501.19;129569;1270;114774;-65
2023/05/14 09:14:44;;;;;;;4.80;2.60;;;;;;;23.48;31.49;100496.52;129138;1266;128485;-66
2023/05/14 09:17:47;;;;;;;3.20;2.10;;;;;;;23.18;31.83;100494.96;129626;1280;115237;-65
2023/05/14 09:20:50;;;;;;;4.70;2.30;;;;;;;23.14;32.18;100490.91;129880;1280;114753;-63
2023/05/14 09:23:54;;;;;;;2.00;1.60;;;;;;;22.95;32.51;100489.21;129804;1264;114837;-63
2023/05/14 09:26:57;;;;;;;1.60;1.50;;;;;;;22.77;32.56;100490.96;129895;1264;114828;-65
2023/05/14 09:30:07;;;;;;;2.50;1.50;;;;;;;22.55;32.59;100489.98;129754;1261;114712;-64
2023/05/14 09:33:09;;;;;;;3.70;1.80;;;;;;;22.48;32.88;100480.67;129916;1262;115331;-66
2023/05/14 09:36:11;;;;;;;2.60;1.50;;;;;;;22.42;32.81;100480.30;129921;1274;115087;-66
2023/05/14 09:39:13;;;;;;;1.80;1.70;;;;;;;22.07;33.01;100482.05;129401;1257;114799;-63
2023/05/14 09:42:15;;;;;;;2.30;1.40;;;;;;;21.93;33.35;100481.14;129747;1264;114884;-65
2023/05/14 09:45:17;;;;;;;6.50;5.80;;;;;;;21.83;33.38;100467.77;129510;1262;114783;-64
2023/05/14 09:48:21;;;;;;;3.50;2.60;;;;;;;21.80;33.80;100463.77;129579;1279;114817;-64
2023/05/14 09:51:23;;;;;;;2.80;2.10;;;;;;;21.76;33.78;100458.36;129515;1276;129273;-63
2023/05/14 09:54:26;;;;;;;1.70;1.60;;;;;;;21.71;33.84;100454.69;129897;1273;114835;-64
2023/05/14 09:57:28;;;;;;;3.50;1.70;;;;;;;21.76;33.95;100445.91;129499;1257;115183;-64
2023/05/14 10:00:31;;;;;;;1.70;1.40;;;;;;;21.72;33.94;100447.52;129473;1264;114887;-65
2023/05/14 10:03:33;;;;;;;1.40;1.30;;;;;;;21.47;34.01;100444.38;129613;1273;114715;-66
2023/05/14 10:06:37;;;;;;;2.30;1.90;;;;;;;21.20;34.41;100443.39;130019;1278;114788;-63
2023/05/14 10:09:40;;;;;;;2.20;1.70;;;;;;;20.99;34.87;100435.45;129940;1262;114734;-64
2023/05/14 10:12:45;;;;;;;2.80;1.70;;;;;;;20.92;35.10;100428.81;129359;1280;115103;-64
2023/05/14 10:15:57;;;;;;;1.80;1.40;;;;;;;20.94;35.40;100430.13;129541;1258;115130;-66
2023/05/14 10:19:09;;;;;;;1.80;1.70;;;;;;;20.80;35.18;100433.73;129924;1262;115408;-64
2023/05/14 10:22:14;;;;;;;3.80;1.60;;;;;;;20.60;35.52;100434.95;130057;1257;114795;-62
2023/05/14 10:25:16;;;;;;;3.10;1.60;;;;;;;20.45;35.44;100437.77;129483;1260;127929;-63
2023/05/14 10:28:19;;;;;;;3.30;1.70;;;;;;;20.40;35.56;100434.02;129439;1261;114761;-65
2023/05/14 10:31:54;;;;;;;2.20;2.00;;;;;;;20.35;35.46;100424.48;129428;1264;115206;-64
2023/05/14 10:34:57;;;;;;;1.60;1.50;;;;;;;20.46;35.95;100417.85;129451;1261;114782;-66
2023/05/14 10:37:59;;;;;;;1.90;1.70;;;;;;;20.64;36.38;100409.73;129884;1263;114790;-64
2023/05/14 10:41:14;;;;;;;3.60;1.70;;;;;;;20.81;36.03;100412.61;130113;1280;114786;-66
2023/05/14 10:44:16;;;;;;;4.60;2.30;;;;;;;20.84;35.65;100410.88;129279;1280;115405;-66
2023/05/14 10:47:19;;;;;;;3.50;2.00;;;;;;;20.75;35.61;100406.98;130115;1262;114773;-64
2023/05/14 10:50:22;;;;;;;3.00;1.50;;;;;;;20.75;35.59;100401.11;130014;1261;114816;-65
2023/05/14 10:53:39;;;;;;;1.80;1.50;;;;;;;20.77;35.58;100396.47;129404;1280;115401;-65
2023/05/14 10:56:47;;;;;;;2.00;1.80;;;;;;;20.84;35.71;100393.62;129523;1258;128888;-65
2023/05/14 10:59:53;;;;;;;1.40;1.30;;;;;;;20.94;35.73;100391.09;129295;1268;115849;-64
2023/05/14 11:02:56;;;;;;;5.80;1.40;;;;;;;21.12;35.77;100389.77;129930;1262;114737;-62
2023/05/14 11:06:03;;;;;;;4.10;1.60;;;;;;;21.15;35.22;100390.59;129375;1261;115234;-62
2023/05/14 11:09:05;;;;;;;2.60;1.70;;;;;;;21.08;35.44;100384.14;129529;1270;115454;-65
2023/05/14 11:12:08;;;;;;;1.50;1.40;;;;;;;21.19;35.50;100379.91;129577;1262;114843;-64
2023/05/14 11:15:13;;;;;;;2.80;1.70;;;;;;;21.32;35.58;100379.00;129482;1278;114786;-62
2023/05/14 11:18:28;;;;;;;2.60;1.70;;;;;;;21.44;35.38;100369.34;129679;1271;114725;-64
2023/05/14 11:21:38;;;;;;;4.50;1.90;;;;;;;21.43;35.07;100367.86;129326;1261;115097;-63
2023/05/14 11:24:40;;;;;;;10.30;2.10;;;;;;;21.41;35.33;100366.97;129408;1280;115441;-63
2023/05/14 11:27:44;;;;;;;1.90;1.30;;;;;;;21.47;35.13;100367.48;129354;1273;114767;-63
2023/05/14 11:30:47;;;;;;;2.40;1.60;;;;;;;21.50;34.37;100358.30;129677;1274;114764;-63
2023/05/14 11:33:51;;;;;;;1.60;1.50;;;;;;;21.50;34.18;100355.57;129631;1262;114770;-65
2023/05/14 11:36:53;;;;;;;13.40;5.40;;;;;;;21.57;34.64;100352.52;129693;1273;114748;-65
2023/05/14 11:39:59;;;;;;;4.00;2.30;;;;;;;21.76;35.00;100348.38;129653;1264;114734;-64
2023/05/14 11:43:02;;;;;;;6.70;3.70;;;;;;;21.96;34.86;100350.98;129545;1264;128274;-64
2023/05/14 11:46:04;;;;;;;5.10;1.60;;;;;;;22.08;34.57;100354.59;129423;1281;115077;-62
2023/05/14 11:49:06;;;;;;;5.80;1.20;;;;;;;22.08;34.08;100350.44;129802;1257;114738;-63
2023/05/14 11:52:10;;;;;;;4.00;2.10;;;;;;;21.98;33.93;100339.05;129680;1264;114873;-64
2023/05/14 11:55:12;;;;;;;2.70;1.60;;;;;;;21.89;34.14;100342.41;129503;1262;114713;-66
2023/05/14 11:58:15;;;;;;;3.90;2.30;;;;;;;21.82;33.93;100337.27;129799;1257;115559;-63
2023/05/14 12:01:18;;;;;;;2.00;1.80;;;;;;;21.82;33.94;100340.20;129597;1278;114793;-64
2023/05/14 12:04:21;;;;;;;14.70;5.60;;;;;;;21.88;34.23;100328.86;129493;1281;114758;-64
2023/05/14 12:07:27;;;;;;;3.70;1.90;;;;;;;22.03;34.06;100325.27;129656;1262;114828;-66
2023/05/14 12:10:40;;;;;;;3.00;1.70;;;;;;;22.13;33.66;100323.95;129534;1278;114735;-67
2023/05/14 12:13:42;;;;;;;2.00;1.80;;;;;;;22.27;33.61;100320.38;129817;1257;114828;-64
2023/05/14 12:16:45;;;;;;;1.90;1.70;;;;;;;22.40;33.46;100320.20;129923;1260;114681;-65
2023/05/14 12:19:50;;;;;;;2.00;1.80;;;;;;;22.50;33.32;100319.27;130187;1280;114818;-63
2023/05/14 12:22:52;;;;;;;5.60;1.70;;;;;;;22.61;33.13;100319.73;129516;1261;114812;-66
2023/05/14 12:25:54;;;;;;;1.90;1.60;;;;;;;22.69;33.50;100315.20;129607;1276;114805;-64
2023/05/14 12:29:01;;;;;;;2.20;1.80;;;;;;;22.62;33.66;100310.80;129688;1260;115173;-65
2023/05/14 12:32:08;;;;;;;6.80;4.20;;;;;;;22.47;33.44;100309.16;129543;1257;114764;-68
2023/05/14 12:35:11;;;;;;;3.60;1.80;;;;;;;22.39;33.56;100304.29;129406;1280;114838;-69
2023/05/14 12:38:14;;;;;;;1.90;1.50;;;;;;;22.41;33.82;100305.89;129509;1257;128807;-64
2023/05/14 12:41:17;;;;;;;2.40;2.20;;;;;;;22.41;33.61;100303.88;129441;1281;114866;-61
2023/05/14 12:44:21;;;;;;;10.90;1.80;;;;;;;22.32;33.72;100302.37;129571;1262;114804;-64
2023/05/14 12:47:23;;;;;;;4.90;1.80;;;;;;;22.24;33.91;100294.30;129479;1262;114764;-62
2023/05/14 12:50:25;;;;;;;4.40;2.00;;;;;;;22.09;34.15;100296.11;129652;1281;114719;-61
2023/05/14 12:53:27;;;;;;;3.10;2.80;;;;;;;22.01;34.43;100295.30;129557;1257;115390;-62
2023/05/14 12:56:30;;;;;;;2.60;2.40;;;;;;;21.86;34.37;100292.52;129373;1269;129712;-60
2023/05/14 12:59:33;;;;;;;3.20;2.80;;;;;;;21.81;34.46;100290.51;129545;1263;115340;-62
2023/05/14 13:02:35;;;;;;;3.10;2.80;;;;;;;21.74;34.65;100291.73;129567;1262;115159;-61
2023/05/14 13:05:37;;;;;;;3.50;2.60;;;;;;;21.63;34.61;100287.64;129574;1262;114830;-65
2023/05/14 13:08:40;;;;;;;3.50;2.70;;;;;;;21.55;34.82;100285.26;129456;1281;114722;-62
2023/05/14 13:11:42;;;;;;;4.30;3.10;;;;;;;21.42;34.95;100279.50;128963;1267;359984;-61
2023/05/14 13:14:47;;;;;;;3.70;3.00;;;;;;;21.33;35.10;100275.72;129430;1258;127637;-61
2023/05/14 13:17:52;;;;;;;7.40;3.30;;;;;;;21.19;35.09;100263.70;129515;1280;115161;-62
2023/05/14 13:20:59;;;;;;;3.90;3.30;;;;;;;21.11;35.15;100265.50;129679;1259;114875;-62
2023/05/14 13:24:06;;;;;;;6.90;3.80;;;;;;;21.04;35.18;100261.27;129563;1280;115094;-63
2023/05/14 13:27:12;;;;;;;3.50;3.20;;;;;;;21.01;35.24;100260.98;129593;1257;114703;-62
2023/05/14 13:30:21;;;;;;;6.30;3.40;;;;;;;21.07;35.44;100257.11;129560;1261;114764;-63
2023/05/14 13:33:36;;;;;;;3.60;3.30;;;;;;;21.16;35.25;100256.46;129694;1264;114864;-60
2023/05/14 13:36:43;;;;;;;5.50;3.30;;;;;;;21.28;35.30;100257.48;129753;1260;114735;-61
2023/05/14 13:39:55;;;;;;;6.20;4.70;;;;;;;21.36;34.53;100251.27;129742;1263;114811;-64
2023/05/14 13:43:02;;;;;;;5.20;3.50;;;;;;;21.42;34.60;100248.02;129417;1261;114852;-61
2023/05/14 13:46:05;;;;;;;4.40;3.50;;;;;;;21.52;34.43;100248.54;129479;1270;114740;-63
2023/05/14 13:49:07;;;;;;;4.20;3.30;;;;;;;21.58;34.53;100247.00;129463;1281;115453;-63